Time;durP1;ratioP1;P1;durP2;ratioP2;P2;SDS_P1;SDS_P2;PMS_P1;PMS_P2;Temp;Humidity;BMP_temperature;BMP_pressure;BME280_temperature;BME280_humidity;BME280_pressure;Samples;Min_cycle;Max_cycle;Signal;HPM_P1;HPM_P2
2022/04/29 00:00:43;;;;;;;11.80;6.13;;;6.40;99.90;;;;;;5106631;28;20203;-74
2022/04/29 00:03:14;;;;;;;9.50;6.40;;;6.40;99.90;;;;;;5092125;28;20227;-75
2022/04/29 00:05:43;;;;;;;12.05;6.40;;;6.40;99.90;;;;;;5085429;28;20200;-75
2022/04/29 00:08:12;;;;;;;19.52;6.50;;;6.40;99.90;;;;;;5084724;28;20736;-75
2022/04/29 00:10:41;;;;;;;11.93;6.60;;;6.30;99.90;;;;;;5083959;28;20206;-74
2022/04/29 00:13:12;;;;;;;12.00;7.25;;;6.30;99.90;;;;;;5083079;28;20651;-75
2022/04/29 00:15:40;;;;;;;16.38;7.40;;;6.30;99.90;;;;;;5084002;28;20317;-78
2022/04/29 00:18:08;;;;;;;13.35;6.15;;;6.20;99.90;;;;;;5084877;28;20226;-77
2022/04/29 00:20:39;;;;;;;15.32;7.32;;;6.20;99.90;;;;;;5084220;28;20204;-74
2022/04/29 00:23:07;;;;;;;12.48;6.75;;;6.10;99.90;;;;;;5084179;28;20267;-76
2022/04/29 00:25:35;;;;;;;13.25;6.82;;;6.10;99.90;;;;;;5083319;28;20214;-77
2022/04/29 00:28:04;;;;;;;9.13;6.85;;;6.10;99.90;;;;;;5083718;28;20219;-76
2022/04/29 00:30:33;;;;;;;24.05;6.75;;;6.20;99.90;;;;;;5084311;28;20818;-77
2022/04/29 00:33:00;;;;;;;10.10;6.70;;;6.20;99.90;;;;;;5084173;28;20212;-78
2022/04/29 00:35:29;;;;;;;10.10;7.07;;;6.20;99.90;;;;;;5083421;28;20291;-76
2022/04/29 00:37:59;;;;;;;13.20;5.97;;;6.30;99.90;;;;;;5083558;28;20242;-76
2022/04/29 00:40:30;;;;;;;9.85;6.75;;;6.30;99.90;;;;;;5089672;28;20203;-76
2022/04/29 00:42:59;;;;;;;11.45;6.65;;;6.30;99.90;;;;;;5105660;28;20250;-76
2022/04/29 00:45:27;;;;;;;12.57;6.63;;;6.30;99.90;;;;;;5109475;28;20746;-76
2022/04/29 00:47:56;;;;;;;19.73;7.97;;;6.30;99.90;;;;;;5110672;28;20216;-77
2022/04/29 00:50:25;;;;;;;15.18;7.68;;;6.20;99.90;;;;;;5110729;28;20287;-75
2022/04/29 00:52:55;;;;;;;12.82;6.40;;;6.00;99.90;;;;;;5100680;28;20219;-76
2022/04/29 00:55:24;;;;;;;17.20;7.57;;;6.00;99.90;;;;;;5087783;28;20197;-76
2022/04/29 00:57:55;;;;;;;9.00;6.80;;;6.00;99.90;;;;;;5085194;28;20807;-77
2022/04/29 01:00:23;;;;;;;12.43;7.47;;;6.00;99.90;;;;;;5085286;28;20192;-78
2022/04/29 01:02:54;;;;;;;13.00;8.70;;;6.00;99.90;;;;;;5086844;28;20218;-78
2022/04/29 01:05:25;;;;;;;12.15;7.25;;;6.00;99.90;;;;;;5090688;28;20200;-77
2022/04/29 01:07:53;;;;;;;11.70;6.78;;;6.00;99.90;;;;;;5084380;28;20372;-76
2022/04/29 01:10:24;;;;;;;20.73;8.55;;;6.00;99.90;;;;;;5083830;28;20215;-78
2022/04/29 01:12:56;;;;;;;14.88;7.70;;;6.00;99.90;;;;;;5082807;28;20881;-74
2022/04/29 01:15:24;;;;;;;12.40;6.50;;;6.00;99.90;;;;;;5082603;28;20211;-78
2022/04/29 01:17:54;;;;;;;15.48;7.60;;;6.00;99.90;;;;;;5082987;28;20299;-77
2022/04/29 01:20:26;;;;;;;16.65;8.00;;;6.00;99.90;;;;;;5082999;28;20291;-76
2022/04/29 01:22:56;;;;;;;13.20;7.55;;;5.90;99.90;;;;;;5082730;28;20220;-76
2022/04/29 01:25:24;;;;;;;9.85;6.78;;;5.90;99.90;;;;;;5082601;28;20204;-77
2022/04/29 01:27:52;;;;;;;14.75;7.90;;;5.80;99.90;;;;;;5081949;28;20679;-75
2022/04/29 01:30:20;;;;;;;15.10;8.05;;;5.90;99.90;;;;;;5082467;28;20212;-78
2022/04/29 01:32:48;;;;;;;9.95;7.10;;;5.80;99.90;;;;;;5082452;28;20223;-76
2022/04/29 01:35:16;;;;;;;16.00;9.43;;;5.80;99.90;;;;;;5084327;28;20717;-76
2022/04/29 01:37:45;;;;;;;15.27;7.85;;;5.80;99.90;;;;;;5083942;28;20275;-75
2022/04/29 01:40:16;;;;;;;14.98;8.25;;;5.80;99.90;;;;;;5082551;28;20200;-74
2022/04/29 01:42:45;;;;;;;24.75;9.00;;;5.80;99.90;;;;;;5082176;28;20303;-77
2022/04/29 01:45:13;;;;;;;16.98;8.48;;;5.80;99.90;;;;;;5082134;28;20223;-78
2022/04/29 01:47:40;;;;;;;12.30;7.32;;;5.70;99.90;;;;;;5082340;28;20227;-76
2022/04/29 01:50:09;;;;;;;13.40;8.00;;;5.80;99.90;;;;;;5081800;28;20832;-75
2022/04/29 01:52:37;;;;;;;14.75;8.52;;;5.80;99.90;;;;;;5080470;28;20216;-76
2022/04/29 01:55:05;;;;;;;10.38;7.05;;;5.80;99.90;;;;;;5082463;28;20196;-78
2022/04/29 01:57:35;;;;;;;19.50;7.43;;;5.70;99.90;;;;;;5082089;28;20197;-77
2022/04/29 02:00:04;;;;;;;15.85;8.43;;;5.80;99.90;;;;;;5081687;28;20203;-76
2022/04/29 02:02:32;;;;;;;11.98;8.15;;;5.80;99.90;;;;;;5082077;28;20319;-76
2022/04/29 02:05:00;;;;;;;16.60;8.57;;;5.70;99.90;;;;;;5085633;28;20382;-78
2022/04/29 02:07:28;;;;;;;12.82;7.53;;;5.80;99.90;;;;;;5085954;28;20203;-78
2022/04/29 02:09:56;;;;;;;15.15;8.65;;;5.80;99.90;;;;;;5084918;28;20204;-77
2022/04/29 02:12:24;;;;;;;12.80;9.20;;;5.90;99.90;;;;;;5082221;28;20232;-77
2022/04/29 02:14:53;;;;;;;15.00;8.07;;;5.90;99.90;;;;;;5085387;28;20192;-77
2022/04/29 02:17:21;;;;;;;16.65;8.10;;;5.90;99.90;;;;;;5107457;28;20200;-77
2022/04/29 02:19:49;;;;;;;13.07;9.80;;;5.80;99.90;;;;;;4880122;28;5001020;-79
2022/04/29 02:22:17;;;;;;;17.33;9.88;;;5.80;99.90;;;;;;5061113;28;20466;-74
2022/04/29 02:24:44;;;;;;;15.77;8.13;;;5.80;99.90;;;;;;5060801;28;20235;-77
2022/04/29 02:27:12;;;;;;;14.98;8.43;;;5.80;99.90;;;;;;5063223;28;20197;-75
2022/04/29 02:29:40;;;;;;;13.38;8.05;;;5.80;99.90;;;;;;5064617;28;20239;-74
2022/04/29 02:32:10;;;;;;;14.25;8.55;;;5.70;99.90;;;;;;5061448;28;20228;-77
2022/04/29 02:34:40;;;;;;;21.95;8.70;;;5.70;99.90;;;;;;5061667;28;20205;-75
2022/04/29 02:37:08;;;;;;;13.65;8.00;;;5.80;99.90;;;;;;5058283;28;20202;-76
2022/04/29 02:39:36;;;;;;;23.60;10.35;;;5.80;99.90;;;;;;5040808;28;20208;-71
2022/04/29 02:42:07;;;;;;;16.95;7.95;;;5.90;99.90;;;;;;5039314;28;20217;-69
2022/04/29 02:44:37;;;;;;;12.75;8.68;;;5.80;99.90;;;;;;5040277;28;20837;-70
2022/04/29 02:47:09;;;;;;;14.65;9.18;;;5.80;99.90;;;;;;5040373;28;20685;-69
2022/04/29 02:49:40;;;;;;;20.27;8.27;;;5.90;99.90;;;;;;5040098;28;20861;-70
2022/04/29 02:52:10;;;;;;;13.52;7.50;;;5.90;99.90;;;;;;5039844;28;20228;-73
2022/04/29 02:54:39;;;;;;;11.65;8.00;;;5.80;99.90;;;;;;5040047;28;20198;-74
2022/04/29 02:57:07;;;;;;;16.08;8.80;;;5.80;99.90;;;;;;5040682;28;20209;-74
2022/04/29 02:59:35;;;;;;;20.85;9.07;;;5.80;99.90;;;;;;5039846;28;20202;-74
2022/04/29 03:02:04;;;;;;;13.32;8.25;;;5.80;99.90;;;;;;5042870;28;20221;-74
2022/04/29 03:04:32;;;;;;;15.68;9.23;;;5.80;99.90;;;;;;5049662;28;20305;-74
2022/04/29 03:07:01;;;;;;;21.70;9.05;;;5.90;99.90;;;;;;5042199;28;20198;-74
2022/04/29 03:09:29;;;;;;;20.02;9.10;;;5.90;99.90;;;;;;5040053;28;20205;-76
2022/04/29 03:11:56;;;;;;;20.83;9.10;;;5.80;99.90;;;;;;5039710;28;20313;-74
2022/04/29 03:14:25;;;;;;;12.57;8.10;;;5.80;99.90;;;;;;5040549;28;20198;-73
2022/04/29 03:16:53;;;;;;;18.10;8.70;;;5.80;99.90;;;;;;5041560;28;20207;-74
2022/04/29 03:19:21;;;;;;;17.63;9.55;;;5.80;99.90;;;;;;5040484;28;20411;-74
2022/04/29 03:21:49;;;;;;;15.38;10.05;;;5.80;99.90;;;;;;5040359;28;20244;-74
2022/04/29 03:24:19;;;;;;;15.95;9.30;;;5.80;99.90;;;;;;5040379;28;20222;-77
2022/04/29 03:26:47;;;;;;;15.80;9.68;;;5.70;99.90;;;;;;5041881;28;20217;-75
2022/04/29 03:29:36;;;;;;;18.48;9.07;;;5.70;99.90;;;;;;5039697;28;20203;-77
2022/04/29 03:32:06;;;;;;;16.73;9.55;;;5.70;99.90;;;;;;5040757;28;20230;-76
2022/04/29 03:34:34;;;;;;;15.60;9.68;;;5.70;99.90;;;;;;5040134;28;20198;-75
2022/04/29 03:37:01;;;;;;;15.95;8.55;;;5.70;99.90;;;;;;5040409;28;20208;-76
2022/04/29 03:39:30;;;;;;;15.48;9.70;;;5.70;99.90;;;;;;5041593;28;20672;-76
2022/04/29 03:41:58;;;;;;;14.48;9.38;;;5.70;99.90;;;;;;5042043;28;20221;-78
2022/04/29 03:44:26;;;;;;;14.93;9.65;;;5.60;99.90;;;;;;5040540;28;20228;-76
2022/04/29 03:46:54;;;;;;;17.35;10.32;;;5.70;99.90;;;;;;5041597;28;20206;-77
2022/04/29 03:49:37;;;;;;;16.27;8.90;;;5.80;99.90;;;;;;5040773;28;20211;-73
2022/04/29 03:52:06;;;;;;;19.40;9.45;;;5.70;99.90;;;;;;5041231;28;20309;-74
2022/04/29 03:54:36;;;;;;;18.67;9.95;;;5.70;99.90;;;;;;5041563;28;20189;-73
2022/04/29 03:57:04;;;;;;;11.02;8.70;;;5.70;99.90;;;;;;5040158;28;20226;-72
2022/04/29 03:59:32;;;;;;;19.08;9.95;;;5.70;99.90;;;;;;5040520;28;20822;-73
2022/04/29 04:02:00;;;;;;;13.40;9.60;;;5.70;99.90;;;;;;5040538;28;20573;-74
2022/04/29 04:04:28;;;;;;;16.08;10.50;;;5.70;99.90;;;;;;5040093;28;20304;-73
2022/04/29 04:07:01;;;;;;;18.05;10.20;;;5.70;99.90;;;;;;5040146;28;20205;-74
2022/04/29 04:09:29;;;;;;;17.00;9.45;;;5.70;99.90;;;;;;5040890;28;20232;-75
2022/04/29 04:11:59;;;;;;;12.23;9.35;;;5.60;99.90;;;;;;5041471;28;20240;-74
2022/04/29 04:14:27;;;;;;;12.98;9.07;;;5.60;99.90;;;;;;5042401;28;20206;-73
2022/04/29 04:16:55;;;;;;;15.40;10.07;;;5.50;99.90;;;;;;5043422;28;20228;-73
2022/04/29 04:19:23;;;;;;;13.77;9.70;;;5.60;99.90;;;;;;5044062;28;20689;-74
2022/04/29 04:21:51;;;;;;;13.73;9.35;;;5.60;99.90;;;;;;5043762;28;20712;-76
2022/04/29 04:24:19;;;;;;;15.23;9.45;;;5.70;99.90;;;;;;5043913;28;20202;-73
2022/04/29 04:26:47;;;;;;;13.85;8.38;;;5.70;99.90;;;;;;5043713;28;20477;-74
2022/04/29 04:29:16;;;;;;;13.07;8.68;;;5.80;99.90;;;;;;5044713;28;20316;-75
2022/04/29 04:31:44;;;;;;;16.90;10.45;;;5.80;99.90;;;;;;5044370;28;20221;-73
2022/04/29 04:36:57;;;;;;;13.45;8.45;;;5.80;99.90;;;;;;5045097;28;20211;-74
2022/04/29 04:39:25;;;;;;;17.25;8.43;;;5.80;99.90;;;;;;5043058;28;20217;-74
2022/04/29 04:41:53;;;;;;;13.48;8.30;;;5.80;99.90;;;;;;5043491;28;20256;-74
2022/04/29 04:44:23;;;;;;;21.17;10.05;;;5.80;99.90;;;;;;5044027;28;20233;-75
2022/04/29 04:46:51;;;;;;;20.38;10.18;;;5.80;99.90;;;;;;5043801;28;20283;-75
2022/04/29 04:49:20;;;;;;;16.45;9.70;;;5.80;99.90;;;;;;5043472;28;20233;-75
2022/04/29 04:51:48;;;;;;;17.75;9.73;;;5.80;99.90;;;;;;5042573;28;20744;-75
2022/04/29 04:54:24;;;;;;;12.38;8.85;;;5.70;99.90;;;;;;5044573;28;20197;-74
2022/04/29 04:56:52;;;;;;;13.32;8.68;;;5.70;99.90;;;;;;5043832;28;20201;-73
2022/04/29 04:59:20;;;;;;;14.55;9.95;;;5.70;99.90;;;;;;5062287;28;20197;-72
2022/04/29 05:01:54;;;;;;;18.50;7.70;;;5.60;99.90;;;;;;5067512;28;20398;-73
2022/04/29 05:04:22;;;;;;;14.52;9.45;;;5.70;99.90;;;;;;5067384;28;20204;-75
2022/04/29 05:06:53;;;;;;;16.17;9.48;;;5.70;99.90;;;;;;5069626;28;20224;-76
2022/04/29 05:09:21;;;;;;;15.80;10.60;;;5.70;99.90;;;;;;5066507;28;20213;-76
2022/04/29 05:11:49;;;;;;;14.30;9.48;;;5.80;99.90;;;;;;5062965;28;20308;-75
2022/04/29 05:14:34;;;;;;;18.20;10.48;;;5.90;99.90;;;;;;5063959;28;20474;-75
2022/04/29 05:17:05;;;;;;;12.00;9.05;;;5.90;99.90;;;;;;5063082;28;20205;-75
2022/04/29 05:19:33;;;;;;;14.95;9.13;;;5.90;99.90;;;;;;5062649;28;20207;-75
2022/04/29 05:22:01;;;;;;;13.70;10.10;;;6.00;99.90;;;;;;5062529;28;20301;-74
2022/04/29 05:24:29;;;;;;;14.40;8.90;;;6.10;99.90;;;;;;5062069;28;20685;-73
2022/04/29 05:26:57;;;;;;;18.05;9.45;;;6.10;99.90;;;;;;5062929;28;20231;-75
2022/04/29 05:32:09;;;;;;;11.13;8.90;;;6.20;99.90;;;;;;5181098;22;20494;-88
2022/04/29 05:34:37;;;;;;;17.77;9.45;;;6.30;99.90;;;;;;5051301;28;20198;-84
2022/04/29 05:37:06;;;;;;;18.02;9.10;;;6.30;99.90;;;;;;5050430;28;20209;-84
2022/04/29 05:42:21;;;;;;;10.18;7.20;;;6.40;99.90;;;;;;5071507;28;20557;-84
2022/04/29 05:44:50;;;;;;;11.43;8.43;;;6.50;99.90;;;;;;5070677;28;20265;-83
2022/04/29 05:47:19;;;;;;;11.27;7.63;;;6.50;99.90;;;;;;5069797;28;20231;-84
2022/04/29 05:49:47;;;;;;;12.85;8.48;;;6.60;99.90;;;;;;5068866;28;20263;-85
2022/04/29 05:52:15;;;;;;;11.20;8.32;;;6.60;99.90;;;;;;5069967;28;20201;-85
2022/04/29 05:54:43;;;;;;;12.70;10.52;;;6.60;99.90;;;;;;5069106;28;20234;-84
2022/04/29 05:57:11;;;;;;;10.20;8.38;;;6.50;99.90;;;;;;5069811;28;20460;-84
2022/04/29 05:59:39;;;;;;;13.77;8.23;;;6.50;99.90;;;;;;5067697;28;20370;-85
2022/04/29 06:02:08;;;;;;;10.48;7.30;;;6.50;99.90;;;;;;5069080;28;20229;-85
2022/04/29 06:04:38;;;;;;;12.63;7.65;;;6.50;99.90;;;;;;5070824;28;20211;-85
2022/04/29 06:07:06;;;;;;;12.60;8.35;;;6.40;99.90;;;;;;5070535;28;20635;-86
2022/04/29 06:09:34;;;;;;;13.75;7.80;;;6.40;99.90;;;;;;5069705;28;20501;-85
2022/04/29 06:12:02;;;;;;;12.45;8.38;;;6.30;99.90;;;;;;5070330;28;20214;-89
2022/04/29 06:14:37;;;;;;;13.40;8.93;;;6.40;99.90;;;;;;5095551;28;20267;-89
2022/04/29 06:17:05;;;;;;;15.55;8.38;;;6.40;99.90;;;;;;5070687;28;20548;-84
2022/04/29 06:19:34;;;;;;;13.50;8.85;;;6.50;99.90;;;;;;5067666;28;20462;-86
2022/04/29 06:22:04;;;;;;;14.45;8.45;;;6.50;99.90;;;;;;5069591;28;20208;-84
2022/04/29 06:24:32;;;;;;;10.50;8.45;;;6.60;99.90;;;;;;5084494;28;20208;-83
2022/04/29 06:27:20;;;;;;;11.60;8.05;;;6.70;99.90;;;;;;5075484;28;20217;-88
2022/04/29 06:29:48;;;;;;;14.43;8.43;;;6.80;99.90;;;;;;5072299;28;20212;-85
2022/04/29 06:32:16;;;;;;;13.30;8.27;;;6.90;99.90;;;;;;5069825;28;20213;-86
2022/04/29 06:34:44;;;;;;;10.60;8.02;;;7.00;99.90;;;;;;5068988;28;20208;-86
2022/04/29 06:41:01;;;;;;;17.55;7.40;;;7.30;99.90;;;;;;5096644;28;20240;-86
2022/04/29 06:43:34;;;;;;;11.57;6.57;;;7.50;99.90;;;;;;5078515;28;20205;-85
2022/04/29 06:46:13;;;;;;;15.18;6.93;;;7.60;99.90;;;;;;5077251;28;20220;-89
2022/04/29 06:48:41;;;;;;;11.80;5.78;;;7.70;99.90;;;;;;5077824;28;20208;-87
2022/04/29 06:54:14;;;;;;;7.88;5.10;;;8.00;99.90;;;;;;5080811;28;20229;-88
2022/04/29 06:57:09;;;;;;;12.23;6.28;;;8.10;99.90;;;;;;5084495;28;20205;-89
2022/04/29 06:59:37;;;;;;;6.72;4.45;;;8.20;99.90;;;;;;5081995;28;20224;-88
2022/04/29 07:03:02;;;;;;;15.15;5.18;;;8.30;99.90;;;;;;5092328;28;20233;-89
2022/04/29 07:06:15;;;;;;;8.15;4.70;;;8.50;99.90;;;;;;5068062;28;20204;-89
2022/04/29 07:16:23;;;;;;;11.90;3.67;;;8.80;99.90;;;;;;5010745;28;20221;-89
2022/04/29 07:19:08;;;;;;;4.05;3.55;;;8.90;99.90;;;;;;4946214;28;20272;-89
2022/04/29 07:21:58;;;;;;;6.88;4.05;;;9.00;99.90;;;;;;4953138;28;20644;-90
2022/04/29 07:27:46;;;;;;;4.82;3.60;;;9.20;99.90;;;;;;5025027;23;20670;-71
2022/04/29 07:30:16;;;;;;;6.90;3.55;;;9.30;99.90;;;;;;5015273;28;20217;-70
2022/04/29 07:32:43;;;;;;;3.30;3.00;;;9.40;99.90;;;;;;5025359;28;20642;-70
2022/04/29 07:43:28;;;;;;;7.40;3.50;;;9.80;99.90;;;;;;5024645;28;20202;-71
2022/04/29 07:45:58;;;;;;;5.45;3.92;;;9.90;99.90;;;;;;5022924;28;20202;-71
2022/04/29 07:48:26;;;;;;;10.40;3.75;;;9.90;99.90;;;;;;5032204;28;20218;-70
2022/04/29 07:50:54;;;;;;;5.95;3.58;;;10.10;99.90;;;;;;5024296;28;20201;-70
2022/04/29 07:53:22;;;;;;;10.43;3.28;;;10.20;99.90;;;;;;5028341;28;20297;-73
2022/04/29 07:55:50;;;;;;;5.70;3.20;;;10.40;99.90;;;;;;5040866;28;20338;-72
2022/04/29 07:58:18;;;;;;;5.25;2.60;;;10.70;99.90;;;;;;5040739;28;20597;-71
2022/04/29 08:00:46;;;;;;;3.77;3.00;;;10.90;99.90;;;;;;5061084;28;20205;-72
2022/04/29 08:03:36;;;;;;;6.33;3.60;;;11.10;99.90;;;;;;5061517;28;20435;-73
2022/04/29 08:06:05;;;;;;;3.03;2.72;;;11.30;99.90;;;;;;5061946;28;21025;-72
2022/04/29 08:08:34;;;;;;;5.53;3.73;;;11.40;99.90;;;;;;5053962;28;20232;-72
2022/04/29 08:11:02;;;;;;;5.00;3.00;;;11.40;99.90;;;;;;5041581;28;20476;-71
2022/04/29 08:13:31;;;;;;;4.18;2.80;;;11.50;99.90;;;;;;5041384;28;20215;-72
2022/04/29 08:16:17;;;;;;;5.67;4.13;;;11.60;99.90;;;;;;5041778;28;20206;-72
2022/04/29 08:18:47;;;;;;;3.67;3.33;;;11.70;99.90;;;;;;5042069;28;20459;-73
2022/04/29 08:21:14;;;;;;;6.63;4.33;;;11.80;99.90;;;;;;5028479;28;20465;-72
2022/04/29 08:23:42;;;;;;;5.17;3.97;;;11.90;99.90;;;;;;5031367;28;20543;-73
2022/04/29 08:26:10;;;;;;;10.10;4.60;;;11.90;99.90;;;;;;5042584;28;20467;-73
2022/04/29 08:28:38;;;;;;;5.90;3.63;;;11.80;99.90;;;;;;5041746;28;20472;-73
2022/04/29 08:31:06;;;;;;;7.03;3.40;;;11.70;99.90;;;;;;5038500;28;20517;-73
2022/04/29 08:33:34;;;;;;;4.30;3.53;;;11.70;99.90;;;;;;5031911;28;20456;-73
2022/04/29 08:36:04;;;;;;;4.20;3.50;;;11.60;99.90;;;;;;5032521;28;20455;-73
2022/04/29 08:38:32;;;;;;;2.83;2.63;;;11.70;99.90;;;;;;5031470;28;20951;-74
2022/04/29 08:41:06;;;;;;;9.00;3.00;;;11.70;99.90;;;;;;5027834;28;20489;-73
2022/04/29 08:43:35;;;;;;;7.03;3.07;;;11.80;99.90;;;;;;5030909;28;20495;-72
2022/04/29 08:46:09;;;;;;;5.70;2.80;;;11.70;99.90;;;;;;5022312;28;20453;-72
2022/04/29 08:48:37;;;;;;;4.10;2.20;;;11.70;99.90;;;;;;5022892;28;20562;-72
2022/04/29 08:51:07;;;;;;;2.20;2.10;;;11.70;99.90;;;;;;5022215;28;21019;-74
2022/04/29 08:53:36;;;;;;;6.27;2.30;;;11.60;99.90;;;;;;5022738;28;20236;-74
2022/04/29 08:58:51;;;;;;;4.35;2.90;;;11.30;99.90;;;;;;5025638;28;20209;-73
2022/04/29 09:01:21;;;;;;;3.60;2.60;;;11.20;99.90;;;;;;5026758;28;20224;-72
2022/04/29 09:03:49;;;;;;;3.95;2.30;;;11.20;99.90;;;;;;5033775;28;20202;-72
2022/04/29 09:06:22;;;;;;;5.28;2.65;;;11.10;99.90;;;;;;5046602;28;20288;-73
2022/04/29 09:08:51;;;;;;;4.88;3.15;;;11.10;99.90;;;;;;5048978;28;20302;-73
2022/04/29 09:11:24;;;;;;;5.38;2.75;;;11.10;99.90;;;;;;5029406;28;20313;-73
2022/04/29 09:13:52;;;;;;;2.97;2.70;;;11.20;99.90;;;;;;5043535;28;20272;-71
2022/04/29 09:16:20;;;;;;;7.32;3.40;;;11.30;99.90;;;;;;5042185;28;20785;-73
2022/04/29 09:18:52;;;;;;;4.43;2.43;;;11.40;99.90;;;;;;5041340;28;20193;-72
2022/04/29 09:21:24;;;;;;;9.93;2.87;;;11.40;99.90;;;;;;5029485;28;20472;-71
2022/04/29 09:23:54;;;;;;;5.47;2.70;;;11.40;99.90;;;;;;5028973;28;20801;-71
2022/04/29 09:26:24;;;;;;;3.33;2.30;;;11.60;99.90;;;;;;5033276;28;20455;-75
2022/04/29 09:28:54;;;;;;;2.40;2.30;;;11.60;99.90;;;;;;5026733;28;20520;-70
2022/04/29 09:31:22;;;;;;;5.10;3.70;;;11.60;99.90;;;;;;5041138;28;20482;-69
2022/04/29 09:34:10;;;;;;;3.10;2.40;;;11.70;99.90;;;;;;5042220;28;20429;-73
2022/04/29 09:36:39;;;;;;;3.17;2.87;;;11.80;99.90;;;;;;5041035;28;20720;-72
2022/04/29 09:41:57;;;;;;;3.67;2.70;;;11.90;99.90;;;;;;5040036;28;20456;-72
2022/04/29 09:44:29;;;;;;;4.53;3.27;;;12.10;99.90;;;;;;5040930;28;20914;-74
2022/04/29 09:46:57;;;;;;;4.43;2.60;;;12.10;99.90;;;;;;5040658;28;20871;-74
2022/04/29 09:49:28;;;;;;;3.80;3.10;;;12.10;99.90;;;;;;5040992;28;20508;-72
2022/04/29 09:51:57;;;;;;;3.03;2.83;;;12.10;99.90;;;;;;5040628;28;20575;-73
2022/04/29 09:54:26;;;;;;;5.87;2.83;;;12.20;99.90;;;;;;5040913;28;20444;-73
2022/04/29 09:57:09;;;;;;;6.10;2.80;;;12.40;99.90;;;;;;5040032;28;20509;-73
2022/04/29 09:59:40;;;;;;;2.97;2.77;;;12.50;99.90;;;;;;5040893;28;20442;-73
2022/04/29 10:02:09;;;;;;;7.33;3.03;;;12.70;99.90;;;;;;5041586;28;20494;-73
2022/04/29 10:04:40;;;;;;;5.07;2.70;;;12.80;99.90;;;;;;5040545;28;20444;-73
2022/04/29 10:07:13;;;;;;;4.30;2.80;;;12.90;99.90;;;;;;5040503;28;21095;-71
2022/04/29 10:09:44;;;;;;;8.10;2.90;;;13.00;99.90;;;;;;5040646;28;21011;-71
2022/04/29 10:12:15;;;;;;;2.13;1.90;;;13.00;99.90;;;;;;5039739;28;20452;-71
2022/04/29 10:14:44;;;;;;;2.77;2.23;;;13.00;99.90;;;;;;5041375;28;20531;-72
2022/04/29 10:23:07;;;;;;;2.40;2.27;;;13.20;99.90;;;;;;4977598;28;20478;-70
2022/04/29 10:25:36;;;;;;;3.87;2.20;;;13.30;99.90;;;;;;5017827;28;20436;-70
2022/04/29 10:28:05;;;;;;;4.77;2.70;;;13.40;99.90;;;;;;5040238;28;20538;-72
2022/04/29 10:30:36;;;;;;;3.60;3.30;;;13.50;99.90;;;;;;5039974;28;20463;-74
2022/04/29 10:33:06;;;;;;;4.40;2.93;;;13.60;99.90;;;;;;5040619;28;20460;-72
2022/04/29 10:36:06;;;;;;;7.03;2.90;;;13.50;99.90;;;;;;5040021;28;20498;-74
2022/04/29 10:38:37;;;;;;;3.40;2.80;;;13.50;99.90;;;;;;4990908;28;20448;-74
2022/04/29 10:41:18;;;;;;;4.33;3.33;;;13.40;99.90;;;;;;5039296;28;20613;-75
2022/04/29 10:44:02;;;;;;;3.60;3.30;;;13.50;99.90;;;;;;5039629;28;20436;-74
2022/04/29 10:46:35;;;;;;;4.30;3.43;;;13.50;99.90;;;;;;5038727;28;20823;-73
2022/04/29 10:49:25;;;;;;;5.10;3.40;;;13.60;99.90;;;;;;5035060;28;21030;-74
2022/04/29 10:51:55;;;;;;;3.83;2.70;;;13.70;99.90;;;;;;5039696;28;20763;-75
2022/04/29 10:54:50;;;;;;;3.53;2.70;;;13.70;99.90;;;;;;5035854;28;20792;-74
2022/04/29 10:57:18;;;;;;;7.97;3.40;;;13.80;99.90;;;;;;5038129;28;20439;-74
2022/04/29 11:00:11;;;;;;;4.83;3.00;;;13.80;99.90;;;;;;5039921;28;20543;-73
2022/04/29 11:02:42;;;;;;;3.40;3.10;;;13.80;99.90;;;;;;5033674;28;20449;-75
2022/04/29 11:05:34;;;;;;;3.23;3.00;;;13.80;99.90;;;;;;5038678;28;20444;-74
2022/04/29 11:08:07;;;;;;;5.00;3.03;;;13.80;99.90;;;;;;5036405;28;20427;-74
2022/04/29 11:10:55;;;;;;;4.93;2.47;;;13.80;99.90;;;;;;5043438;28;20486;-73
2022/04/29 11:13:27;;;;;;;4.33;2.80;;;13.80;99.90;;;;;;5041465;28;20440;-74
2022/04/29 11:16:08;;;;;;;4.20;2.90;;;13.80;99.90;;;;;;5047922;28;20427;-72
2022/04/29 11:18:36;;;;;;;3.83;2.80;;;13.80;99.90;;;;;;5034115;28;20544;-73
2022/04/29 11:26:48;;;;;;;4.43;3.80;;;14.10;99.90;;;;;;5051846;28;20478;-82
2022/04/29 11:29:21;;;;;;;3.17;2.90;;;14.20;99.90;;;;;;5048988;28;21022;-80
2022/04/29 11:31:49;;;;;;;2.90;2.70;;;14.30;99.90;;;;;;5044318;28;20859;-79
2022/04/29 11:34:20;;;;;;;2.93;2.80;;;14.30;99.90;;;;;;5042023;28;20470;-80
2022/04/29 11:36:48;;;;;;;5.33;2.37;;;14.40;99.90;;;;;;5043716;28;20432;-82
2022/04/29 11:39:17;;;;;;;5.07;2.63;;;14.30;99.60;;;;;;5043531;28;20452;-81
2022/04/29 11:41:59;;;;;;;4.87;2.40;;;14.20;99.50;;;;;;5041407;28;21027;-81
2022/04/29 11:44:38;;;;;;;4.10;2.27;;;14.30;99.70;;;;;;5043369;28;20936;-80
2022/04/29 11:47:10;;;;;;;4.07;2.83;;;14.30;99.80;;;;;;5042245;28;20510;-80
2022/04/29 11:49:39;;;;;;;4.40;2.27;;;14.30;99.60;;;;;;5043430;28;20483;-79
2022/04/29 11:52:20;;;;;;;2.60;2.10;;;14.50;99.80;;;;;;5043446;28;20462;-80
2022/04/29 11:54:52;;;;;;;5.10;2.40;;;14.80;99.70;;;;;;5041339;28;20491;-81
2022/04/29 11:57:26;;;;;;;11.37;2.47;;;15.00;98.60;;;;;;5043200;28;20723;-81
2022/04/29 11:59:55;;;;;;;3.23;2.80;;;15.10;97.80;;;;;;5043598;28;20436;-80
2022/04/29 12:02:27;;;;;;;2.00;1.90;;;15.10;98.20;;;;;;5040542;28;20506;-83
2022/04/29 12:04:57;;;;;;;6.40;3.10;;;15.20;98.10;;;;;;5039062;28;20456;-82
2022/04/29 12:07:26;;;;;;;5.03;2.37;;;15.20;98.10;;;;;;5045342;28;20711;-84
2022/04/29 12:09:55;;;;;;;2.53;2.33;;;15.40;98.30;;;;;;5055172;28;20495;-82
2022/04/29 12:12:25;;;;;;;5.77;3.13;;;15.30;98.70;;;;;;5057675;28;20468;-84
2022/04/29 12:14:53;;;;;;;2.97;2.77;;;15.20;99.00;;;;;;5056829;28;20720;-83
2022/04/29 12:17:32;;;;;;;3.23;3.03;;;15.10;99.40;;;;;;5036163;28;20465;-81
2022/04/29 12:20:00;;;;;;;6.33;3.10;;;15.10;98.50;;;;;;5047735;28;20441;-81
2022/04/29 12:22:29;;;;;;;3.97;3.57;;;15.10;98.10;;;;;;5033251;28;20452;-82
2022/04/29 12:24:57;;;;;;;6.50;3.20;;;15.20;98.20;;;;;;5040530;28;20522;-81
2022/04/29 12:27:32;;;;;;;8.67;4.10;;;15.20;98.50;;;;;;5032475;28;20519;-81
2022/04/29 12:35:38;;;;;;;3.63;3.33;;;15.30;98.70;;;;;;5037991;28;20429;-80
2022/04/29 12:38:17;;;;;;;3.30;3.00;;;15.40;98.90;;;;;;5045496;28;20480;-81
2022/04/29 12:40:45;;;;;;;4.30;3.97;;;15.60;98.70;;;;;;5041938;28;20484;-81
2022/04/29 12:43:15;;;;;;;4.70;3.17;;;15.80;98.90;;;;;;5047538;28;20466;-82
2022/04/29 12:45:43;;;;;;;3.90;3.13;;;15.90;98.20;;;;;;5048424;28;20460;-76
2022/04/29 12:48:14;;;;;;;4.17;3.37;;;15.90;98.10;;;;;;5044715;28;20436;-76
2022/04/29 12:50:44;;;;;;;4.87;3.20;;;15.90;98.00;;;;;;5043956;28;20811;-76
2022/04/29 12:53:13;;;;;;;4.23;3.77;;;16.00;97.80;;;;;;5043781;28;20777;-75
2022/04/29 12:55:49;;;;;;;3.37;3.10;;;16.00;98.10;;;;;;5045509;28;20551;-82
2022/04/29 12:58:20;;;;;;;4.37;4.07;;;16.00;98.30;;;;;;5044538;28;20514;-83
2022/04/29 13:01:02;;;;;;;5.80;4.20;;;15.90;98.30;;;;;;5043350;28;20440;-82
2022/04/29 13:03:31;;;;;;;6.10;4.53;;;16.00;98.20;;;;;;5045531;28;20920;-82
2022/04/29 13:06:00;;;;;;;5.40;4.60;;;16.00;98.50;;;;;;5043951;28;21047;-79
2022/04/29 13:08:28;;;;;;;4.73;4.33;;;16.00;98.40;;;;;;5040533;28;20555;-81
2022/04/29 13:10:58;;;;;;;5.90;4.43;;;16.20;98.60;;;;;;5044526;28;20472;-80
2022/04/29 13:13:28;;;;;;;5.70;4.70;;;16.20;98.50;;;;;;5044679;28;20456;-82
2022/04/29 13:15:57;;;;;;;4.20;3.90;;;16.30;98.20;;;;;;5043408;28;20887;-82
2022/04/29 13:18:25;;;;;;;4.77;3.97;;;16.50;97.30;;;;;;5043668;28;20449;-82
2022/04/29 13:20:53;;;;;;;5.80;5.30;;;16.40;97.20;;;;;;5043656;28;20480;-81
2022/04/29 13:23:21;;;;;;;6.83;4.37;;;16.40;97.60;;;;;;5043473;28;20473;-80
2022/04/29 13:25:50;;;;;;;5.07;4.67;;;16.30;97.80;;;;;;5050982;28;20531;-79
2022/04/29 13:28:18;;;;;;;6.10;5.17;;;16.20;98.00;;;;;;5047132;28;20448;-75
2022/04/29 13:30:48;;;;;;;8.93;5.63;;;16.00;98.00;;;;;;5033791;28;21073;-78
2022/04/29 13:33:16;;;;;;;7.17;5.73;;;16.00;98.30;;;;;;5040526;28;21002;-78
2022/04/29 13:35:49;;;;;;;6.23;5.60;;;16.10;98.00;;;;;;5037397;28;20523;-78
2022/04/29 13:38:18;;;;;;;5.33;4.93;;;15.90;98.30;;;;;;5046054;28;20454;-75
2022/04/29 13:40:46;;;;;;;5.53;5.10;;;15.80;98.50;;;;;;5043083;28;20976;-72
2022/04/29 13:43:14;;;;;;;8.80;4.90;;;15.80;98.50;;;;;;5038433;28;21862;-76
2022/04/29 13:45:44;;;;;;;5.87;5.30;;;15.80;98.50;;;;;;5039932;28;20439;-76
2022/04/29 13:48:14;;;;;;;5.70;5.27;;;15.70;98.70;;;;;;5038724;28;20444;-74
2022/04/29 13:50:43;;;;;;;7.47;5.80;;;15.70;98.70;;;;;;5039352;28;20496;-74
2022/04/29 13:53:13;;;;;;;6.20;5.60;;;15.60;99.00;;;;;;5041734;28;20432;-74
2022/04/29 13:55:45;;;;;;;8.13;5.13;;;15.40;99.20;;;;;;5038434;28;20579;-75
2022/04/29 13:58:14;;;;;;;6.10;5.50;;;15.40;99.00;;;;;;5040923;28;20439;-74
2022/04/29 14:00:50;;;;;;;4.60;4.20;;;15.40;99.00;;;;;;5041721;28;20486;-74
2022/04/29 14:03:22;;;;;;;5.80;4.30;;;15.50;99.00;;;;;;5041590;28;20444;-75